Farndon, United Kingdom
Current Conditions -  °F | °C
As of 11:50 PM on Wednesday 22 Oct 2014 (Local Time) from EGYD Reporting Station
Broken Clouds Broken Clouds  
Wind Chill: 10°   Ceiling: 11000
Heat Index: 10°   Visibility: 6mi
Dew Point:   Wind: 12mph
Humidity: 87%   Direction: 230°SW
Pressure: 30.12"   Gusts: NA
Location:  53.05°N, 0.85°W
Report Text: EGYD 222250Z AUTO 23010KT 9999 // BKN110/// BKN160/// 10/08 Q1020
Loading
Personal Weather Stations






























Interactive Weather Map
Tropical Storm Tracking
New forecast layout! Learn more

10-Day Weather Forecast

Advertisements
Track Severe Weather on mobile